Heat Index [SAI AWOS/ASOS Display]_________FAA Disclaimer: "Not for use in aviation at this time______________" Untitled Document
Auglaize County Neil Armstrong Airport (AXV)
340
17:10
18/02/21
12
N/A
N/A
30.45
N/A
912
39(F), 4(C)
39(F), 4(C)
32 F
100%
OVC007
10
Light Rain
N/A
N/A
17:10 zulu Wind 340 at 12 Knots, Altimeter 30.45
METAR KAXV 211710Z AUTO 34012KT 10SM -RA OVC007 04/04 A3045 A02
METAR:
FAA Disclaimer--Advisory Use ONLY, not for flight info-- 3/04/2009: Welcome to the Neil Armstong AXV Graphical AWOS Display, if you find this information useful, please call the airport manager at 419-753-2810. New URL for AWOS smartphone display is http://www.saiawos2.com/AXV
INFO:
Wind Direction:
Wind Speed:
Wind Gust:
Wind Variable:
Altimeter:
Dens Alt:
Elev:
Temp:
Dwpt:
Wind Chill
Rel Humidity:
Ceiling:
Visibility:
Prsnt Wea:
PCPN:
Remarks:
How to read the WebPage